Time;durP1;ratioP1;P1;durP2;ratioP2;P2;SDS_P1;SDS_P2;PMS_P1;PMS_P2;Temp;Humidity;BMP_temperature;BMP_pressure;BME280_temperature;BME280_humidity;BME280_pressure;Samples;Min_cycle;Max_cycle;Signal;HPM_P1;HPM_P2
2021/04/15 00:01:58;;;;;;;1.65;0.60;;;17.60;55.90;;;;;;10485092;28;20407;-51
2021/04/15 00:06:59;;;;;;;0.63;0.50;;;17.60;55.70;;;;;;10503562;28;20548;-53
2021/04/15 00:12:00;;;;;;;0.88;0.40;;;17.60;55.70;;;;;;10503288;28;20036;-55
2021/04/15 00:17:01;;;;;;;0.63;0.40;;;17.60;55.70;;;;;;10503100;28;20389;-52
2021/04/15 00:22:01;;;;;;;2.28;0.65;;;17.60;55.70;;;;;;10502956;28;20051;-53
2021/04/15 00:27:02;;;;;;;1.45;0.63;;;17.60;55.70;;;;;;10502419;28;20108;-52
2021/04/15 00:32:04;;;;;;;1.50;0.63;;;17.60;55.70;;;;;;10483712;28;20498;-54
2021/04/15 00:37:04;;;;;;;1.08;0.50;;;17.60;55.60;;;;;;10502424;28;20028;-54
2021/04/15 00:42:06;;;;;;;0.65;0.30;;;17.60;55.60;;;;;;10474182;28;20056;-54
2021/04/15 00:47:15;;;;;;;1.52;0.43;;;17.60;55.60;;;;;;10484297;28;20369;-54
2021/04/15 00:52:19;;;;;;;0.70;0.50;;;17.60;55.50;;;;;;10483127;28;20178;-54
2021/04/15 00:57:37;;;;;;;0.40;0.30;;;17.60;55.60;;;;;;10501606;28;20044;-54
2021/04/15 01:02:38;;;;;;;1.55;0.45;;;17.60;55.50;;;;;;10501200;28;20036;-54
2021/04/15 01:07:39;;;;;;;1.17;0.57;;;17.50;55.50;;;;;;10501591;28;20025;-54
2021/04/15 01:12:59;;;;;;;0.88;0.63;;;17.50;55.50;;;;;;10500919;28;20542;-54
2021/04/15 01:18:04;;;;;;;;;;;17.60;55.40;;;;;;10484631;28;20063;-54
2021/04/15 01:23:17;;;;;;;0.75;0.40;;;17.60;55.30;;;;;;10500732;28;19912;-54
2021/04/15 01:28:21;;;;;;;0.75;0.40;;;17.50;55.40;;;;;;10483349;28;20024;-53
2021/04/15 01:33:38;;;;;;;1.08;0.40;;;17.60;55.30;;;;;;10499919;28;20473;-52
2021/04/15 01:39:01;;;;;;;1.17;0.43;;;17.60;55.30;;;;;;10470071;28;20079;-53
2021/04/15 01:44:13;;;;;;;0.88;0.57;;;17.60;55.30;;;;;;10482546;28;20393;-53
2021/04/15 01:49:17;;;;;;;1.20;0.50;;;17.60;55.20;;;;;;10465642;28;20457;-52
2021/04/15 01:54:43;;;;;;;0.40;0.30;;;17.60;55.20;;;;;;10475973;28;20032;-53
2021/04/15 01:59:50;;;;;;;0.47;0.40;;;17.60;55.20;;;;;;10468735;28;20111;-53
2021/04/15 02:05:10;;;;;;;0.80;0.50;;;17.50;55.10;;;;;;10481586;28;20037;-54
2021/04/15 02:10:13;;;;;;;0.88;0.50;;;17.50;55.20;;;;;;10512151;28;20135;-54
2021/04/15 02:15:28;;;;;;;0.88;0.50;;;17.50;55.10;;;;;;10480262;28;20043;-53
2021/04/15 02:20:29;;;;;;;1.73;0.52;;;17.50;55.10;;;;;;10480465;28;20060;-55
2021/04/15 02:25:59;;;;;;;1.45;0.65;;;17.50;55.10;;;;;;10479445;28;20073;-54
2021/04/15 02:31:28;;;;;;;1.00;0.60;;;17.60;55.00;;;;;;10485838;28;20029;-54
2021/04/15 02:36:54;;;;;;;0.50;0.45;;;17.60;55.00;;;;;;10497311;28;20043;-54
2021/04/15 02:41:56;;;;;;;0.80;0.35;;;17.50;55.10;;;;;;10407750;28;20073;-54
2021/04/15 02:47:10;;;;;;;0.63;0.40;;;17.50;55.00;;;;;;10413528;28;20044;-54
2021/04/15 02:52:22;;;;;;;1.02;0.52;;;17.50;55.00;;;;;;10413319;28;20386;-54
2021/04/15 02:57:31;;;;;;;1.67;0.50;;;17.60;55.00;;;;;;10395514;28;20033;-54
2021/04/15 03:02:46;;;;;;;0.57;0.30;;;17.60;54.90;;;;;;10413490;28;20537;-53
2021/04/15 03:07:49;;;;;;;1.13;0.32;;;17.50;54.90;;;;;;10413247;28;20033;-54
2021/04/15 03:13:10;;;;;;;1.13;0.40;;;17.50;54.90;;;;;;10415096;28;20119;-53
2021/04/15 03:18:31;;;;;;;0.77;0.30;;;17.60;54.90;;;;;;10401534;28;20033;-54
2021/04/15 03:23:54;;;;;;;1.70;0.47;;;17.50;54.90;;;;;;10421215;28;20041;-53
2021/04/15 03:29:28;;;;;;;0.88;0.40;;;17.50;54.80;;;;;;10421256;28;20037;-54
2021/04/15 03:34:57;;;;;;;1.20;0.30;;;17.50;54.80;;;;;;10422163;28;20036;-54
2021/04/15 03:39:58;;;;;;;0.75;0.35;;;17.60;54.80;;;;;;10459514;28;20389;-55
2021/04/15 03:45:13;;;;;;;0.35;0.30;;;17.60;54.80;;;;;;10504038;28;20063;-54
2021/04/15 03:50:31;;;;;;;0.70;0.43;;;17.60;54.70;;;;;;10474654;28;20532;-51
2021/04/15 03:55:38;;;;;;;1.25;0.50;;;17.60;54.80;;;;;;10486324;28;20113;-53
2021/04/15 04:00:49;;;;;;;0.55;0.25;;;17.50;54.60;;;;;;10503831;28;20028;-54
2021/04/15 04:06:21;;;;;;;0.80;0.30;;;17.50;54.60;;;;;;10485560;28;20032;-52
2021/04/15 04:11:24;;;;;;;0.47;0.20;;;17.60;54.70;;;;;;10486659;28;20029;-53
2021/04/15 04:16:43;;;;;;;0.38;0.30;;;17.50;54.60;;;;;;10485550;28;20036;-51
2021/04/15 04:22:05;;;;;;;0.60;0.40;;;17.50;54.60;;;;;;10485458;28;20244;-53
2021/04/15 04:27:21;;;;;;;0.32;0.30;;;17.50;54.60;;;;;;10484490;28;20032;-54
2021/04/15 04:32:25;;;;;;;0.30;0.20;;;17.50;54.60;;;;;;10501769;28;20067;-53
2021/04/15 04:37:40;;;;;;;0.82;0.30;;;17.50;54.60;;;;;;10473654;28;20486;-55
2021/04/15 04:42:50;;;;;;;0.55;0.32;;;17.50;54.50;;;;;;10479106;28;20047;-53
2021/04/15 04:48:39;;;;;;;0.82;0.30;;;17.50;54.50;;;;;;10484914;28;20039;-52
2021/04/15 04:53:42;;;;;;;0.82;0.30;;;17.50;54.50;;;;;;10300188;28;20042;-52
2021/04/15 04:59:15;;;;;;;0.43;0.20;;;17.50;54.50;;;;;;10462378;28;20049;-52
2021/04/15 05:04:20;;;;;;;1.75;0.55;;;17.50;54.40;;;;;;10489008;28;20036;-53
2021/04/15 05:09:40;;;;;;;2.08;0.30;;;17.60;54.40;;;;;;10499858;28;20020;-52
2021/04/15 05:14:40;;;;;;;1.38;0.50;;;17.60;54.80;;;;;;10482195;28;20384;-49
2021/04/15 05:19:41;;;;;;;3.63;0.45;;;17.60;55.40;;;;;;10482069;28;20021;-50
2021/04/15 05:24:54;;;;;;;3.60;0.47;;;17.60;56.60;;;;;;10475170;28;20517;-51
2021/04/15 05:30:19;;;;;;;3.72;0.40;;;17.60;56.10;;;;;;10473737;28;20111;-52
2021/04/15 05:35:30;;;;;;;3.78;0.60;;;17.60;56.90;;;;;;10482698;28;20060;-51
2021/04/15 05:40:31;;;;;;;5.53;0.70;;;17.60;57.20;;;;;;10482258;28;20040;-48
2021/04/15 05:45:33;;;;;;;8.63;1.30;;;17.60;57.10;;;;;;10481024;28;20039;-52
2021/04/15 05:50:48;;;;;;;8.82;1.13;;;17.60;57.20;;;;;;10480960;28;20033;-52
2021/04/15 05:56:05;;;;;;;8.25;1.00;;;17.60;56.50;;;;;;10481665;28;20028;-53
2021/04/15 06:01:17;;;;;;;5.95;1.20;;;17.60;56.20;;;;;;10498674;28;20112;-53
2021/04/15 06:06:21;;;;;;;4.07;1.08;;;17.60;55.70;;;;;;10497191;28;20392;-56
2021/04/15 06:11:33;;;;;;;6.65;1.15;;;17.50;55.70;;;;;;10478297;28;20036;-56
2021/04/15 06:16:46;;;;;;;4.32;1.00;;;17.60;55.70;;;;;;10493506;28;20400;-55
2021/04/15 06:22:15;;;;;;;4.78;0.52;;;17.50;55.60;;;;;;10460094;28;20040;-56
2021/04/15 06:27:18;;;;;;;5.10;0.90;;;17.60;55.60;;;;;;10460446;28;20512;-53
2021/04/15 06:32:32;;;;;;;2.67;0.90;;;17.50;55.60;;;;;;10472019;28;20161;-54
2021/04/15 06:37:39;;;;;;;7.63;0.93;;;17.50;55.40;;;;;;10473639;28;20074;-55
2021/04/15 06:43:10;;;;;;;5.72;0.80;;;17.60;55.40;;;;;;10486419;28;20052;-55
2021/04/15 06:48:48;;;;;;;2.95;0.60;;;17.60;55.30;;;;;;10489747;28;20123;-54
2021/04/15 06:54:10;;;;;;;1.48;0.73;;;17.60;55.50;;;;;;10489516;28;20029;-55
2021/04/15 06:59:53;;;;;;;2.90;0.57;;;17.50;55.40;;;;;;10488727;28;20020;-54
2021/04/15 07:05:05;;;;;;;1.67;0.50;;;17.60;55.50;;;;;;10496691;28;20056;-56
2021/04/15 07:10:23;;;;;;;2.42;0.60;;;17.60;55.40;;;;;;10494188;28;20029;-54
2021/04/15 07:15:45;;;;;;;1.35;0.55;;;17.60;55.50;;;;;;10479245;28;20044;-55
2021/04/15 07:21:25;;;;;;;3.13;0.47;;;17.60;55.50;;;;;;10495951;28;20056;-55
2021/04/15 07:27:06;;;;;;;0.98;0.50;;;17.50;55.40;;;;;;10478379;28;20032;-54
2021/04/15 07:32:40;;;;;;;1.95;0.65;;;17.50;55.40;;;;;;10454098;28;20052;-54
2021/04/15 07:38:18;;;;;;;1.80;0.50;;;17.50;55.40;;;;;;10495626;28;20086;-55
2021/04/15 07:43:49;;;;;;;1.98;0.80;;;17.50;55.40;;;;;;10494907;28;20546;-54
2021/04/15 07:49:46;;;;;;;2.28;0.55;;;17.50;55.50;;;;;;10495087;28;20499;-55
2021/04/15 07:55:13;;;;;;;1.10;0.60;;;17.50;55.60;;;;;;10495788;28;20074;-55
2021/04/15 08:00:35;;;;;;;2.00;0.73;;;17.50;55.60;;;;;;10498847;28;20039;-54
2021/04/15 08:06:25;;;;;;;4.05;0.65;;;17.50;55.50;;;;;;10508318;28;20060;-55
2021/04/15 08:11:44;;;;;;;1.45;0.25;;;17.50;55.60;;;;;;10503086;28;20060;-54
2021/04/15 08:17:12;;;;;;;1.95;0.43;;;17.50;55.60;;;;;;10502617;28;20380;-54
2021/04/15 08:22:47;;;;;;;1.02;0.30;;;17.40;55.60;;;;;;10502327;28;20024;-55
2021/04/15 08:28:37;;;;;;;0.85;0.30;;;17.40;55.60;;;;;;10502453;28;20028;-55
2021/04/15 08:34:10;;;;;;;1.08;0.70;;;17.40;55.60;;;;;;10486231;28;20469;-55
2021/04/15 08:39:44;;;;;;;1.33;0.30;;;17.50;55.70;;;;;;10491102;28;20496;-55
2021/04/15 08:44:56;;;;;;;1.13;0.30;;;17.50;55.60;;;;;;10485255;28;20032;-55
2021/04/15 08:50:13;;;;;;;2.00;0.50;;;17.50;55.60;;;;;;10502094;28;20028;-53
2021/04/15 08:55:56;;;;;;;0.38;0.20;;;17.50;55.60;;;;;;10484331;28;20064;-53
2021/04/15 09:01:24;;;;;;;3.30;0.60;;;17.40;55.60;;;;;;10500951;28;20039;-54
2021/04/15 09:06:25;;;;;;;1.85;0.30;;;17.40;55.60;;;;;;10446283;28;20032;-54
2021/04/15 09:12:00;;;;;;;0.47;0.30;;;17.40;55.60;;;;;;10499562;28;20036;-53
2021/04/15 09:17:35;;;;;;;0.28;0.28;;;17.50;55.60;;;;;;10483418;28;20365;-54
2021/04/15 09:22:56;;;;;;;2.42;0.50;;;17.50;55.60;;;;;;10484105;28;20052;-54
2021/04/15 09:28:31;;;;;;;1.23;0.40;;;17.50;55.60;;;;;;10483219;28;20028;-55
2021/04/15 09:33:51;;;;;;;0.75;0.40;;;17.50;55.60;;;;;;10481864;28;20064;-55
2021/04/15 09:39:28;;;;;;;1.77;0.50;;;17.40;55.60;;;;;;10472820;28;20048;-54
2021/04/15 09:45:07;;;;;;;0.40;0.40;;;17.40;55.60;;;;;;10482374;28;20036;-52
2021/04/15 09:50:20;;;;;;;1.02;0.50;;;17.40;55.60;;;;;;10482729;28;20032;-53
2021/04/15 09:55:28;;;;;;;1.33;0.35;;;17.40;55.70;;;;;;10499100;28;20033;-52
2021/04/15 10:00:52;;;;;;;1.20;0.30;;;17.40;55.90;;;;;;10498720;28;20048;-53
2021/04/15 10:06:03;;;;;;;0.30;0.20;;;17.30;56.10;;;;;;10498345;28;20032;-54
2021/04/15 10:11:22;;;;;;;1.13;0.40;;;17.30;56.50;;;;;;10498262;28;20035;-55
2021/04/15 10:16:57;;;;;;;1.90;0.53;;;17.30;56.50;;;;;;10498164;28;20531;-53
2021/04/15 10:22:13;;;;;;;0.60;0.30;;;17.20;56.50;;;;;;10497343;28;20530;-54
2021/04/15 10:27:38;;;;;;;0.60;0.50;;;17.20;56.50;;;;;;10477718;28;20059;-54
2021/04/15 10:33:06;;;;;;;0.38;0.38;;;17.20;56.60;;;;;;10496086;28;20082;-55
2021/04/15 10:38:55;;;;;;;2.17;0.50;;;17.10;56.30;;;;;;10496199;28;20056;-55
2021/04/15 10:44:34;;;;;;;4.55;0.50;;;17.20;56.10;;;;;;10494568;28;20043;-50
2021/04/15 10:49:55;;;;;;;1.48;0.60;;;17.20;56.00;;;;;;10475141;28;20039;-56
2021/04/15 10:55:23;;;;;;;0.77;0.38;;;17.20;56.50;;;;;;10495793;28;20107;-53
2021/04/15 11:00:35;;;;;;;0.47;0.40;;;17.20;56.60;;;;;;10494942;28;20044;-51
2021/04/15 11:05:39;;;;;;;0.95;0.40;;;17.20;56.90;;;;;;10495630;28;20035;-53
2021/04/15 11:10:40;;;;;;;0.43;0.20;;;17.20;56.70;;;;;;10461139;28;20052;-54
2021/04/15 11:15:51;;;;;;;1.02;0.40;;;17.20;56.70;;;;;;10495179;28;20099;-53
2021/04/15 11:20:54;;;;;;;0.47;0.30;;;17.10;56.50;;;;;;10496747;28;20479;-53
2021/04/15 11:26:24;;;;;;;2.13;0.35;;;17.10;56.80;;;;;;10496165;28;20033;-52
2021/04/15 11:31:35;;;;;;;;;;;17.10;56.80;;;;;;10496992;28;20047;-54
2021/04/15 11:37:21;;;;;;;1.42;0.30;;;17.10;56.90;;;;;;10502892;28;19920;-52
2021/04/15 11:42:22;;;;;;;0.30;0.20;;;17.10;57.10;;;;;;10474666;28;20064;-55
2021/04/15 11:47:30;;;;;;;0.63;0.38;;;17.10;57.50;;;;;;10479767;28;20515;-54
2021/04/15 11:52:34;;;;;;;1.25;0.32;;;17.00;56.90;;;;;;10503656;28;20133;-52
2021/04/15 11:57:40;;;;;;;0.30;0.30;;;17.00;56.80;;;;;;10499398;28;20031;-54
2021/04/15 12:03:06;;;;;;;0.85;0.40;;;17.00;56.90;;;;;;10503632;28;20388;-54
2021/04/15 12:08:26;;;;;;;0.82;0.35;;;17.00;56.70;;;;;;10487679;28;20106;-54
2021/04/15 12:13:35;;;;;;;0.70;0.30;;;17.00;56.70;;;;;;10485730;28;20026;-54
2021/04/15 12:18:47;;;;;;;0.50;0.30;;;16.90;56.60;;;;;;10478682;28;20447;-54
2021/04/15 12:24:37;;;;;;;0.50;0.32;;;17.00;57.40;;;;;;10485322;28;20028;-54
2021/04/15 12:30:03;;;;;;;0.75;0.40;;;17.00;56.90;;;;;;10502487;28;20154;-54
2021/04/15 12:35:30;;;;;;;0.57;0.40;;;17.00;56.70;;;;;;10502125;28;20032;-52
2021/04/15 12:40:41;;;;;;;0.85;0.40;;;17.00;56.50;;;;;;10484339;28;20144;-52
2021/04/15 12:45:56;;;;;;;0.73;0.40;;;17.10;56.50;;;;;;10484348;28;20030;-54
2021/04/15 12:50:59;;;;;;;0.43;0.30;;;17.10;56.40;;;;;;10485412;28;20028;-53
2021/04/15 12:56:01;;;;;;;0.40;0.40;;;17.10;56.20;;;;;;10483565;28;20025;-53
2021/04/15 13:01:02;;;;;;;0.50;0.30;;;17.10;56.20;;;;;;10483477;28;20028;-53
2021/04/15 13:06:11;;;;;;;0.60;0.30;;;17.20;56.20;;;;;;10500762;28;20032;-53
2021/04/15 13:11:15;;;;;;;0.75;0.30;;;17.20;56.10;;;;;;10467162;28;20108;-54
2021/04/15 13:16:34;;;;;;;0.80;0.28;;;17.20;56.80;;;;;;10500393;28;20037;-54
2021/04/15 13:21:41;;;;;;;0.30;0.30;;;17.20;56.50;;;;;;10499594;28;20033;-54
2021/04/15 13:26:42;;;;;;;0.80;0.30;;;17.20;56.70;;;;;;10482593;28;20074;-53
2021/04/15 13:31:52;;;;;;;0.47;0.30;;;17.20;56.60;;;;;;10482093;28;20046;-54
2021/04/15 13:37:40;;;;;;;0.40;0.30;;;17.20;56.60;;;;;;10482430;28;20028;-52
2021/04/15 13:42:41;;;;;;;0.43;0.22;;;17.10;56.50;;;;;;10499090;28;20136;-53
2021/04/15 13:47:45;;;;;;;0.45;0.30;;;17.10;56.60;;;;;;10481627;28;20357;-53
2021/04/15 13:52:46;;;;;;;2.05;0.50;;;17.10;56.60;;;;;;10499152;28;20079;-52
2021/04/15 13:57:47;;;;;;;0.73;0.30;;;17.00;56.70;;;;;;10498083;28;20021;-51
2021/04/15 14:02:52;;;;;;;0.63;0.40;;;17.00;56.60;;;;;;10480987;28;20118;-54
2021/04/15 14:07:58;;;;;;;0.65;0.30;;;17.00;56.60;;;;;;10480916;28;20024;-54
2021/04/15 14:13:17;;;;;;;0.63;0.40;;;17.00;56.60;;;;;;10480877;28;20079;-54
2021/04/15 14:18:31;;;;;;;0.77;0.30;;;17.00;56.50;;;;;;10480418;28;20358;-52
2021/04/15 14:23:42;;;;;;;0.80;0.30;;;17.10;56.60;;;;;;10498314;28;20085;-52
2021/04/15 14:28:42;;;;;;;1.00;0.30;;;17.10;56.60;;;;;;10497307;28;20028;-52
2021/04/15 14:33:45;;;;;;;0.40;0.25;;;17.10;56.60;;;;;;10484991;28;20044;-52
2021/04/15 14:38:46;;;;;;;0.40;0.30;;;17.10;56.50;;;;;;10496326;28;20055;-54
2021/04/15 14:43:47;;;;;;;0.30;0.30;;;17.10;56.20;;;;;;10497226;28;20334;-53
2021/04/15 14:48:47;;;;;;;1.15;0.30;;;17.10;56.60;;;;;;10496982;28;20060;-54
2021/04/15 14:53:48;;;;;;;0.85;0.40;;;17.10;56.60;;;;;;10496617;28;20025;-53
2021/04/15 14:59:08;;;;;;;1.00;0.45;;;17.20;56.60;;;;;;10496753;28;20050;-50
2021/04/15 15:04:12;;;;;;;0.60;0.35;;;17.10;56.70;;;;;;10479095;28;20418;-53
2021/04/15 15:09:22;;;;;;;0.50;0.30;;;17.10;56.60;;;;;;10495950;28;20049;-52
2021/04/15 15:14:31;;;;;;;0.45;0.30;;;17.10;56.60;;;;;;10496282;28;20021;-53
2021/04/15 15:19:35;;;;;;;0.63;0.40;;;17.10;56.60;;;;;;10496312;28;20104;-54
2021/04/15 15:24:44;;;;;;;0.82;0.30;;;17.10;56.50;;;;;;10476277;28;20029;-52
2021/04/15 15:30:40;;;;;;;0.70;0.40;;;17.00;56.60;;;;;;10494352;28;20036;-54
2021/04/15 15:35:42;;;;;;;1.00;0.55;;;17.00;56.20;;;;;;10387559;28;20048;-54
2021/04/15 15:40:45;;;;;;;1.33;0.47;;;17.10;56.10;;;;;;10477990;28;20063;-53
2021/04/15 15:46:03;;;;;;;4.47;0.50;;;17.20;55.90;;;;;;10496196;28;20082;-49
2021/04/15 15:51:04;;;;;;;11.98;1.23;;;17.20;55.50;;;;;;10495969;28;20036;-51
2021/04/15 15:56:40;;;;;;;2.92;0.80;;;17.20;54.30;;;;;;10495413;28;20025;-49
2021/04/15 16:02:01;;;;;;;7.32;1.33;;;17.20;53.40;;;;;;10467817;28;20528;-47
2021/04/15 16:07:10;;;;;;;7.72;1.42;;;17.30;54.60;;;;;;10479244;28;20547;-46
2021/04/15 16:12:52;;;;;;;4.30;1.00;;;17.30;55.80;;;;;;10477898;28;20039;-50
2021/04/15 16:17:58;;;;;;;5.43;0.90;;;17.40;56.10;;;;;;10482528;28;20412;-47
2021/04/15 16:22:59;;;;;;;9.32;1.50;;;17.40;56.50;;;;;;10467477;28;20457;-48
2021/04/15 16:28:00;;;;;;;5.95;1.20;;;17.50;57.10;;;;;;10503103;28;20031;-51
2021/04/15 16:33:02;;;;;;;7.97;1.80;;;17.50;57.00;;;;;;10483614;28;20477;-50
2021/04/15 16:38:09;;;;;;;19.20;2.17;;;17.50;56.60;;;;;;10500120;28;20032;-50
2021/04/15 16:43:10;;;;;;;16.65;2.83;;;17.50;56.70;;;;;;10500165;28;20048;-51
2021/04/15 16:48:10;;;;;;;12.38;1.90;;;17.50;57.10;;;;;;10498810;28;20090;-53
2021/04/15 16:53:11;;;;;;;18.40;3.47;;;17.40;57.50;;;;;;10483535;28;20380;-55
2021/04/15 16:58:17;;;;;;;18.85;2.10;;;17.40;58.20;;;;;;10501111;28;20032;-55
2021/04/15 17:03:18;;;;;;;18.08;2.10;;;17.40;57.50;;;;;;10501241;28;20036;-55
2021/04/15 17:08:20;;;;;;;19.98;3.42;;;17.30;57.10;;;;;;10501409;28;20037;-55
2021/04/15 17:13:21;;;;;;;10.20;2.75;;;17.30;56.90;;;;;;10500341;28;20025;-55
2021/04/15 17:18:25;;;;;;;8.70;1.90;;;17.30;56.80;;;;;;10482850;28;20030;-55
2021/04/15 17:23:27;;;;;;;14.20;3.67;;;17.30;56.70;;;;;;10500066;28;20040;-55
2021/04/15 17:28:31;;;;;;;9.52;1.52;;;17.20;56.50;;;;;;10497624;28;20119;-57
2021/04/15 17:33:32;;;;;;;7.50;1.75;;;17.20;56.60;;;;;;10498202;28;20047;-56
2021/04/15 17:38:34;;;;;;;5.90;1.92;;;17.20;56.50;;;;;;10484445;28;20096;-55
2021/04/15 17:43:37;;;;;;;6.22;2.25;;;17.20;56.50;;;;;;10490431;28;20045;-56
2021/04/15 17:48:40;;;;;;;11.75;1.50;;;17.20;56.40;;;;;;10491861;28;20032;-55
2021/04/15 17:53:43;;;;;;;10.52;1.80;;;17.30;56.30;;;;;;10490958;28;20032;-55
2021/04/15 17:58:44;;;;;;;14.73;1.98;;;17.30;56.30;;;;;;10479714;28;20030;-55
2021/04/15 18:03:46;;;;;;;3.70;1.25;;;17.30;56.10;;;;;;10473644;28;20609;-54
2021/04/15 18:08:52;;;;;;;4.50;1.63;;;17.40;56.10;;;;;;10491659;28;20028;-55
2021/04/15 18:13:54;;;;;;;6.05;1.33;;;17.40;56.10;;;;;;10491264;28;20034;-56
2021/04/15 18:18:55;;;;;;;5.60;1.33;;;17.40;56.00;;;;;;10474889;28;20145;-56
2021/04/15 18:23:56;;;;;;;3.13;1.02;;;17.40;56.00;;;;;;10472586;28;20051;-55
2021/04/15 18:28:57;;;;;;;6.82;2.30;;;17.40;56.00;;;;;;10473187;28;20047;-55
2021/04/15 18:33:59;;;;;;;5.40;1.92;;;17.40;55.90;;;;;;10491108;28;20036;-53
2021/04/15 18:39:07;;;;;;;7.47;1.30;;;17.50;56.00;;;;;;10490960;28;20020;-56
2021/04/15 18:44:12;;;;;;;5.93;1.17;;;17.50;55.90;;;;;;10477880;28;20048;-57
2021/04/15 18:49:13;;;;;;;9.88;1.92;;;17.40;55.90;;;;;;10497247;28;20119;-57
2021/04/15 18:54:14;;;;;;;8.20;1.98;;;17.50;56.00;;;;;;10495053;28;20935;-53
2021/04/15 18:59:16;;;;;;;7.80;1.50;;;17.50;56.10;;;;;;10494984;28;20036;-57
2021/04/15 19:04:17;;;;;;;8.00;1.67;;;17.50;56.40;;;;;;10495541;28;20447;-57
2021/04/15 19:09:18;;;;;;;3.35;1.00;;;17.50;56.80;;;;;;10485650;28;20037;-56
2021/04/15 19:14:19;;;;;;;6.65;1.30;;;17.50;56.80;;;;;;10495003;28;20036;-56
2021/04/15 19:19:20;;;;;;;3.92;1.10;;;17.50;56.20;;;;;;10493046;28;20024;-52
2021/04/15 19:24:21;;;;;;;7.18;1.88;;;17.50;56.60;;;;;;10495675;28;20048;-51
2021/04/15 19:29:22;;;;;;;5.97;1.02;;;17.50;56.20;;;;;;10475120;28;20082;-49
2021/04/15 19:34:23;;;;;;;8.75;1.98;;;17.50;56.00;;;;;;10494251;28;20041;-51
2021/04/15 19:39:24;;;;;;;6.20;1.48;;;17.50;55.60;;;;;;10492624;28;20081;-50
2021/04/15 19:44:26;;;;;;;3.63;1.20;;;17.50;55.70;;;;;;10493166;28;20028;-49
2021/04/15 19:49:27;;;;;;;3.80;1.13;;;17.50;55.60;;;;;;10473685;28;20476;-50
2021/04/15 19:54:27;;;;;;;3.60;1.15;;;17.50;56.30;;;;;;10497051;28;20077;-53
2021/04/15 19:59:28;;;;;;;2.88;0.70;;;17.50;55.60;;;;;;10503960;28;20024;-50
2021/04/15 20:04:29;;;;;;;2.30;0.80;;;17.40;55.50;;;;;;10485810;28;20012;-48
2021/04/15 20:09:29;;;;;;;4.18;1.10;;;17.40;55.50;;;;;;10503576;28;20037;-48
2021/04/15 20:14:30;;;;;;;4.45;1.35;;;17.40;55.40;;;;;;10485385;28;20147;-48
2021/04/15 20:19:31;;;;;;;3.58;0.80;;;17.50;55.30;;;;;;10502398;28;20021;-49
2021/04/15 20:24:32;;;;;;;1.45;0.70;;;17.50;55.10;;;;;;10502773;28;20099;-47
2021/04/15 20:29:33;;;;;;;4.13;1.38;;;17.50;55.00;;;;;;10485092;28;20036;-48
2021/04/15 20:34:37;;;;;;;4.13;1.23;;;17.50;54.90;;;;;;10502038;28;20430;-49
2021/04/15 20:39:39;;;;;;;1.63;0.60;;;17.60;54.80;;;;;;10501933;28;20047;-47
2021/04/15 20:44:39;;;;;;;1.95;0.70;;;17.60;54.80;;;;;;10484560;28;20037;-50
2021/04/15 20:49:40;;;;;;;3.33;0.93;;;17.60;54.70;;;;;;10501842;28;20436;-51
2021/04/15 20:54:41;;;;;;;2.15;0.55;;;17.60;54.60;;;;;;10501785;28;20029;-49
2021/04/15 20:59:42;;;;;;;3.60;0.90;;;17.60;54.60;;;;;;10501509;28;20025;-49
2021/04/15 21:04:43;;;;;;;1.70;0.60;;;17.60;54.60;;;;;;10501551;28;20284;-50
2021/04/15 21:09:44;;;;;;;2.22;0.55;;;17.60;54.50;;;;;;10501062;28;20036;-48
2021/04/15 21:14:44;;;;;;;2.45;0.70;;;17.60;54.40;;;;;;10500994;28;20086;-49
2021/04/15 21:19:45;;;;;;;2.72;0.60;;;17.60;54.40;;;;;;10510398;28;20120;-47
2021/04/15 21:24:46;;;;;;;1.98;0.73;;;17.60;54.40;;;;;;10500573;28;20099;-47
2021/04/15 21:29:46;;;;;;;2.85;0.70;;;17.60;54.30;;;;;;10500433;28;20437;-51
2021/04/15 21:34:47;;;;;;;1.75;0.60;;;17.60;54.30;;;;;;10499763;28;20036;-50
2021/04/15 21:39:48;;;;;;;3.78;1.05;;;17.60;54.20;;;;;;10499588;28;20062;-48
2021/04/15 21:44:49;;;;;;;0.93;0.40;;;17.60;54.20;;;;;;10499905;28;20096;-48
2021/04/15 21:49:54;;;;;;;0.98;0.73;;;17.60;54.10;;;;;;10499603;28;20499;-49
2021/04/15 21:54:54;;;;;;;0.73;0.40;;;17.60;54.10;;;;;;10465329;28;20028;-48
2021/04/15 21:59:55;;;;;;;3.47;0.80;;;17.60;54.00;;;;;;10498731;28;20392;-48
2021/04/15 22:04:56;;;;;;;2.85;0.60;;;17.60;54.00;;;;;;10498932;28;20025;-49
2021/04/15 22:09:57;;;;;;;2.40;0.57;;;17.60;53.90;;;;;;10498939;28;20130;-49
2021/04/15 22:14:58;;;;;;;1.42;0.50;;;17.60;53.90;;;;;;10479551;28;20055;-49
2021/04/15 22:20:00;;;;;;;0.93;0.50;;;17.60;53.90;;;;;;10497541;28;20028;-52
2021/04/15 22:25:04;;;;;;;0.93;0.57;;;17.60;54.50;;;;;;10504590;28;20060;-50
2021/04/15 22:30:14;;;;;;;1.02;0.30;;;17.60;53.80;;;;;;10502806;28;20037;-48
2021/04/15 22:35:26;;;;;;;1.70;0.60;;;17.60;53.80;;;;;;10488947;28;20109;-47
2021/04/15 22:40:31;;;;;;;2.75;0.98;;;17.60;53.70;;;;;;10507809;28;20044;-52
2021/04/15 22:45:32;;;;;;;1.17;0.40;;;17.60;53.70;;;;;;10509967;28;20368;-48
2021/04/15 22:50:38;;;;;;;0.73;0.50;;;17.60;53.60;;;;;;10505770;28;20036;-49
2021/04/15 22:55:39;;;;;;;0.57;0.35;;;17.70;53.60;;;;;;10496997;28;20396;-48
2021/04/15 23:00:44;;;;;;;4.97;0.80;;;17.60;53.60;;;;;;10503359;28;20036;-48
2021/04/15 23:05:48;;;;;;;0.40;0.30;;;17.60;53.60;;;;;;10501474;28;20032;-48
2021/04/15 23:10:53;;;;;;;0.85;0.40;;;17.60;53.60;;;;;;10501005;28;20055;-48
2021/04/15 23:15:53;;;;;;;1.00;0.38;;;17.60;53.50;;;;;;10481360;28;20032;-47
2021/04/15 23:20:57;;;;;;;1.13;0.60;;;17.60;53.40;;;;;;10495649;28;20033;-48
2021/04/15 23:25:58;;;;;;;1.30;0.40;;;17.60;53.40;;;;;;10495888;28;20032;-49
2021/04/15 23:30:59;;;;;;;1.10;0.60;;;17.60;53.40;;;;;;10489793;28;20376;-49
2021/04/15 23:36:00;;;;;;;1.42;0.50;;;17.60;53.90;;;;;;10509703;28;20065;-49
2021/04/15 23:41:02;;;;;;;2.17;0.40;;;17.60;53.30;;;;;;10513760;28;20068;-49
2021/04/15 23:46:04;;;;;;;0.80;0.50;;;17.60;53.20;;;;;;10503825;28;20058;-52
2021/04/15 23:51:06;;;;;;;1.48;0.50;;;17.60;53.20;;;;;;10518914;28;20037;-53
2021/04/15 23:56:07;;;;;;;0.43;0.20;;;17.60;53.20;;;;;;10507157;28;20035;-51
